createdAt,value
2019-06-01T00:02:12.045Z,8.50
2019-06-01T00:04:40.939Z,6.65
2019-06-01T00:07:08.974Z,5.92
2019-06-01T00:09:36.837Z,7.17
2019-06-01T00:12:04.701Z,9.35
2019-06-01T00:14:32.600Z,8.38
2019-06-01T00:17:00.516Z,11.10
2019-06-01T00:19:28.502Z,10.88
2019-06-01T00:21:56.413Z,8.10
2019-06-01T00:24:24.280Z,8.78
2019-06-01T00:26:52.174Z,14.13
2019-06-01T00:29:20.060Z,10.72
2019-06-01T00:31:48.031Z,7.75
2019-06-01T00:34:15.910Z,9.18
2019-06-01T00:36:43.847Z,7.03
2019-06-01T00:39:11.725Z,8.13
2019-06-01T00:41:39.588Z,7.42
2019-06-01T00:44:07.553Z,7.35
2019-06-01T00:46:35.451Z,7.22
2019-06-01T00:49:03.340Z,5.75
2019-06-01T00:51:31.307Z,9.73
2019-06-01T00:53:59.229Z,8.45
2019-06-01T00:56:27.127Z,6.12
2019-06-01T00:58:54.966Z,8.03
2019-06-01T01:01:22.931Z,8.78
2019-06-01T01:03:52.252Z,5.47
2019-06-01T01:06:20.377Z,5.87
2019-06-01T01:08:48.995Z,5.50
2019-06-01T01:11:17.009Z,6.62
2019-06-01T01:13:45.651Z,6.00
2019-06-01T01:16:13.730Z,8.05
2019-06-01T01:18:41.601Z,4.75
2019-06-01T01:21:09.475Z,4.80
2019-06-01T01:23:37.323Z,5.00
2019-06-01T01:26:24.190Z,5.78
2019-06-01T01:28:52.979Z,6.75
2019-06-01T01:31:21.112Z,5.35
2019-06-01T01:33:49.388Z,5.10
2019-06-01T01:36:17.327Z,4.42
2019-06-01T01:38:45.208Z,5.08
2019-06-01T01:41:13.073Z,5.78
2019-06-01T01:43:40.957Z,5.15
2019-06-01T01:46:08.890Z,4.95
2019-06-01T01:48:36.779Z,4.40
2019-06-01T01:51:04.719Z,4.33
2019-06-01T01:53:32.582Z,5.20
2019-06-01T01:56:01.198Z,4.30
2019-06-01T01:58:29.322Z,5.33
2019-06-01T02:00:58.553Z,5.85
2019-06-01T02:03:26.757Z,5.17
2019-06-01T02:05:54.942Z,7.40
2019-06-01T02:08:22.873Z,5.10
2019-06-01T02:10:51.184Z,6.28
2019-06-01T02:13:19.216Z,4.22
2019-06-01T02:15:47.076Z,5.80
2019-06-01T02:18:15.039Z,5.08
2019-06-01T02:20:42.965Z,5.12
2019-06-01T02:23:10.802Z,4.78
2019-06-01T02:25:38.652Z,6.15
2019-06-01T02:28:06.505Z,6.67
2019-06-01T02:30:34.396Z,4.50
2019-06-01T02:33:04.102Z,5.17
2019-06-01T02:35:31.924Z,4.60
2019-06-01T02:38:00.392Z,4.53
2019-06-01T02:40:28.453Z,4.90
2019-06-01T02:42:57.224Z,4.78
2019-06-01T02:45:25.692Z,5.87
2019-06-01T02:47:55.237Z,5.50
2019-06-01T02:50:23.226Z,6.22
2019-06-01T02:52:51.088Z,4.67
2019-06-01T02:55:19.013Z,6.70
2019-06-01T02:57:46.918Z,4.62
2019-06-01T03:00:14.778Z,5.75
2019-06-01T03:02:42.717Z,6.20
2019-06-01T03:05:10.631Z,7.58
2019-06-01T03:07:38.507Z,7.17
2019-06-01T03:10:07.050Z,5.45
2019-06-01T03:12:35.083Z,5.70
2019-06-01T03:15:02.931Z,6.20
2019-06-01T03:17:30.876Z,6.80
2019-06-01T03:19:59.623Z,5.42
2019-06-01T03:22:27.727Z,4.97
2019-06-01T03:24:55.913Z,5.08
2019-06-01T03:27:23.872Z,6.22
2019-06-01T03:29:51.819Z,5.25
2019-06-01T03:32:35.112Z,5.67
2019-06-01T03:34:49.262Z,5.00
2019-06-01T03:37:17.202Z,7.90
2019-06-01T03:39:45.158Z,4.83
2019-06-01T03:42:13.126Z,4.90
2019-06-01T03:44:41.065Z,5.60
2019-06-01T03:47:09.745Z,4.42
2019-06-01T03:49:37.779Z,5.92
2019-06-01T03:52:06.820Z,4.17
2019-06-01T03:54:34.903Z,5.90
2019-06-01T03:57:03.745Z,4.78
2019-06-01T03:59:32.170Z,4.58
2019-06-01T04:02:00.846Z,6.08
2019-06-01T04:04:28.847Z,4.45
2019-06-01T04:06:56.684Z,8.60
2019-06-01T04:09:24.653Z,4.28
2019-06-01T04:11:52.525Z,4.37
2019-06-01T04:14:20.383Z,4.10
2019-06-01T04:16:48.238Z,5.53
2019-06-01T04:19:16.119Z,5.42
2019-06-01T04:21:44.074Z,6.12
2019-06-01T04:24:12.395Z,4.40
2019-06-01T04:26:40.344Z,4.40
2019-06-01T04:29:08.341Z,7.03
2019-06-01T04:31:36.232Z,5.58
2019-06-01T04:34:04.566Z,5.00
2019-06-01T04:36:32.543Z,6.53
2019-06-01T04:39:00.419Z,5.22
2019-06-01T04:41:28.264Z,4.72
2019-06-01T04:43:56.132Z,5.55
2019-06-01T04:46:23.979Z,4.97
2019-06-01T04:48:51.855Z,7.67
2019-06-01T04:51:19.737Z,4.40
2019-06-01T04:53:47.630Z,7.90
2019-06-01T04:56:15.579Z,6.85
2019-06-01T04:58:43.536Z,7.25
2019-06-01T05:01:11.410Z,7.70
2019-06-01T05:03:39.290Z,6.58
2019-06-01T05:06:07.235Z,6.72
2019-06-01T05:08:35.296Z,6.83
2019-06-01T05:11:05.177Z,5.70
2019-06-01T05:13:32.865Z,6.83
2019-06-01T05:16:00.802Z,8.05
2019-06-01T05:18:28.679Z,4.83
2019-06-01T05:20:56.628Z,7.67
2019-06-01T05:23:24.522Z,8.03
2019-06-01T05:25:53.387Z,8.13
2019-06-01T05:28:21.435Z,4.97
2019-06-01T05:30:49.285Z,5.67
2019-06-01T05:33:30.996Z,4.85
2019-06-01T05:35:46.737Z,5.42
2019-06-01T05:38:14.629Z,6.08
2019-06-01T05:40:42.524Z,5.67
2019-06-01T05:43:14.103Z,6.50
2019-06-01T05:45:40.030Z,5.75
2019-06-01T05:48:07.905Z,7.75
2019-06-01T05:50:35.819Z,5.22
2019-06-01T05:53:03.730Z,5.10
2019-06-01T05:55:31.687Z,5.55
2019-06-01T05:57:59.563Z,6.10
2019-06-01T06:00:27.452Z,5.53
2019-06-01T06:02:55.284Z,5.78
2019-06-01T06:05:23.176Z,4.20
2019-06-01T06:07:51.240Z,10.25
2019-06-01T06:10:20.054Z,10.72
2019-06-01T06:12:48.146Z,5.55
2019-06-01T06:15:16.051Z,6.53
2019-06-01T06:17:43.937Z,5.35
2019-06-01T06:20:11.837Z,6.20
2019-06-01T06:22:41.256Z,6.95
2019-06-01T06:25:09.275Z,6.78
2019-06-01T06:27:37.135Z,5.45
2019-06-01T06:30:05.026Z,4.95
2019-06-01T06:32:32.881Z,6.97
2019-06-01T06:35:00.747Z,4.58
2019-06-01T06:37:28.654Z,6.08
2019-06-01T06:39:56.605Z,6.53
2019-06-01T06:42:24.540Z,5.30
2019-06-01T06:44:52.408Z,5.87
2019-06-01T06:47:20.945Z,6.22
2019-06-01T06:49:48.901Z,5.12
2019-06-01T06:52:17.442Z,6.72
2019-06-01T06:54:45.508Z,4.42
2019-06-01T06:57:13.401Z,7.80
2019-06-01T06:59:41.243Z,5.62
2019-06-01T07:02:09.312Z,4.50
2019-06-01T07:04:37.220Z,5.12
2019-06-01T07:07:05.099Z,5.15
2019-06-01T07:09:33.017Z,4.50
2019-06-01T07:12:00.958Z,5.33
2019-06-01T07:14:28.807Z,4.10
2019-06-01T07:16:56.751Z,5.47
2019-06-01T07:19:25.688Z,5.00
2019-06-01T07:21:53.804Z,4.40
2019-06-01T07:24:21.820Z,5.80
2019-06-01T07:26:49.784Z,6.17
2019-06-01T07:29:17.750Z,4.97
2019-06-01T07:31:45.677Z,4.05
2019-06-01T07:34:29.591Z,3.80
2019-06-01T07:36:43.124Z,4.25
2019-06-01T07:39:11.025Z,4.67
2019-06-01T07:41:38.937Z,4.42
2019-06-01T07:44:06.909Z,4.30
2019-06-01T07:46:34.773Z,4.00
2019-06-01T07:49:02.659Z,5.25
2019-06-01T07:51:31.676Z,4.72
2019-06-01T07:53:59.749Z,3.85
2019-06-01T07:56:28.659Z,4.12
2019-06-01T07:58:56.756Z,4.00
2019-06-01T08:01:25.767Z,3.58
2019-06-01T08:03:54.234Z,3.95
2019-06-01T08:06:23.830Z,4.30
2019-06-01T08:08:51.746Z,4.00
2019-06-01T08:11:19.695Z,4.15
2019-06-01T08:13:47.622Z,4.55
2019-06-01T08:16:15.507Z,3.30
2019-06-01T08:18:43.463Z,4.70
2019-06-01T08:21:11.315Z,2.98
2019-06-01T08:23:39.177Z,5.22
2019-06-01T08:26:07.044Z,3.90
2019-06-01T08:28:34.958Z,3.62
2019-06-01T08:31:02.913Z,4.17
2019-06-01T08:33:33.177Z,4.78
2019-06-01T08:36:01.163Z,3.25
2019-06-01T08:38:29.614Z,4.67
2019-06-01T08:40:57.603Z,4.53
2019-06-01T08:43:25.595Z,5.05
2019-06-01T08:45:53.540Z,3.00
2019-06-01T08:48:21.449Z,4.50
2019-06-01T08:50:49.381Z,3.72
2019-06-01T08:53:17.312Z,3.62
2019-06-01T08:55:45.238Z,2.65
2019-06-01T08:58:13.463Z,3.10
2019-06-01T09:00:41.422Z,3.75
2019-06-01T09:03:09.370Z,4.00
2019-06-01T09:05:37.257Z,3.40
2019-06-01T09:08:05.333Z,3.80
2019-06-01T09:10:33.347Z,3.47
2019-06-01T09:13:01.345Z,4.55
2019-06-01T09:15:29.745Z,3.55
2019-06-01T09:18:00.193Z,3.90
2019-06-01T09:20:31.912Z,3.10
2019-06-01T09:22:57.867Z,2.70
2019-06-01T09:25:25.810Z,3.90
2019-06-01T09:27:53.796Z,2.70
2019-06-01T09:30:21.788Z,2.37
2019-06-01T09:32:49.758Z,3.83
2019-06-01T09:35:17.770Z,3.77
2019-06-01T09:37:45.981Z,2.75
2019-06-01T09:40:14.186Z,3.75
2019-06-01T09:42:42.048Z,2.40
2019-06-01T09:45:10.039Z,2.42
2019-06-01T09:47:38.005Z,3.58
2019-06-01T09:50:05.934Z,3.40
2019-06-01T09:52:33.875Z,2.52
2019-06-01T09:55:04.587Z,2.10
2019-06-01T09:57:32.564Z,2.42
2019-06-01T10:00:02.218Z,2.45
2019-06-01T10:02:30.158Z,2.37
2019-06-01T10:05:00.270Z,2.95
2019-06-01T10:07:29.206Z,2.70
2019-06-01T10:09:57.217Z,1.92
2019-06-01T10:12:25.178Z,2.00
2019-06-01T10:14:53.185Z,2.85
2019-06-01T10:17:21.060Z,1.95
2019-06-01T10:19:48.957Z,3.45
2019-06-01T10:22:16.879Z,2.62
2019-06-01T10:24:44.972Z,2.27
2019-06-01T10:27:13.035Z,2.25
2019-06-01T10:29:40.997Z,2.02
2019-06-01T10:32:08.894Z,2.58
2019-06-01T10:34:37.731Z,4.83
2019-06-01T10:37:06.457Z,2.40
2019-06-01T10:39:35.257Z,3.25
2019-06-01T10:42:03.431Z,2.27
2019-06-01T10:44:31.608Z,3.60
2019-06-01T10:46:59.756Z,2.25
2019-06-01T10:49:27.729Z,2.40
2019-06-01T10:51:55.691Z,2.12
2019-06-01T10:54:23.679Z,2.90
2019-06-01T10:56:51.940Z,2.70
2019-06-01T10:59:20.193Z,3.50
2019-06-01T11:01:48.238Z,3.50
2019-06-01T11:04:16.116Z,2.25
2019-06-01T11:06:48.362Z,2.50
2019-06-01T11:09:13.670Z,3.45
2019-06-01T11:11:41.585Z,2.40
2019-06-01T11:14:09.452Z,3.40
2019-06-01T11:16:37.447Z,2.20
2019-06-01T11:19:05.456Z,2.37
2019-06-01T11:21:33.549Z,2.37
2019-06-01T11:24:01.665Z,2.52
2019-06-01T11:26:29.686Z,3.20
2019-06-01T11:28:57.587Z,2.17
2019-06-01T11:31:25.575Z,2.20
2019-06-01T11:33:53.612Z,2.27
2019-06-01T11:36:21.527Z,2.92
2019-06-01T11:38:51.695Z,3.27
2019-06-01T11:41:19.775Z,4.03
2019-06-01T11:43:47.819Z,2.47
2019-06-01T11:46:15.936Z,2.52
2019-06-01T11:48:45.262Z,2.15
2019-06-01T11:51:16.833Z,3.40
2019-06-01T11:53:45.627Z,3.33
2019-06-01T11:56:13.774Z,2.30
2019-06-01T11:58:45.494Z,2.10
2019-06-01T12:01:13.622Z,2.45
2019-06-01T12:03:41.824Z,2.67
2019-06-01T12:06:12.734Z,4.05
2019-06-01T12:08:42.126Z,2.67
2019-06-01T12:11:10.368Z,2.65
2019-06-01T12:13:38.423Z,1.80
2019-06-01T12:16:06.291Z,2.83
2019-06-01T12:18:34.320Z,5.05
2019-06-01T12:21:02.287Z,3.15
2019-06-01T12:23:30.249Z,2.15
2019-06-01T12:25:58.245Z,2.42
2019-06-01T12:28:26.202Z,2.83
2019-06-01T12:30:54.217Z,2.52
2019-06-01T12:33:22.114Z,2.10
2019-06-01T12:35:50.056Z,2.27
2019-06-01T12:38:18.184Z,2.15
2019-06-01T12:40:47.333Z,2.22
2019-06-01T12:43:15.550Z,2.50
2019-06-01T12:45:43.717Z,2.37
2019-06-01T12:48:11.887Z,3.27
2019-06-01T12:50:47.804Z,2.30
2019-06-01T12:53:13.455Z,2.92
2019-06-01T12:55:43.183Z,2.17
2019-06-01T12:58:11.261Z,2.02
2019-06-01T13:00:42.126Z,3.20
2019-06-01T13:03:12.005Z,3.02
2019-06-01T13:05:39.952Z,3.70
2019-06-01T13:08:08.023Z,2.40
2019-06-01T13:10:37.825Z,2.35
2019-06-01T13:13:05.945Z,3.15
2019-06-01T13:15:34.046Z,1.80
2019-06-01T13:18:01.986Z,3.50
2019-06-01T13:20:29.969Z,2.25
2019-06-01T13:22:58.049Z,2.27
2019-06-01T13:25:26.147Z,2.30
2019-06-01T13:27:54.193Z,2.15
2019-06-01T13:30:22.182Z,1.85
2019-06-01T13:32:52.786Z,2.20
2019-06-01T13:35:20.043Z,2.75
2019-06-01T13:37:50.946Z,1.80
2019-06-01T13:40:20.105Z,1.85
2019-06-01T13:42:49.107Z,2.12
2019-06-01T13:45:17.283Z,3.35
2019-06-01T13:47:45.432Z,1.80
2019-06-01T13:50:13.569Z,2.87
2019-06-01T13:52:41.731Z,3.60
2019-06-01T13:55:09.805Z,3.10
2019-06-01T13:57:39.535Z,1.80
2019-06-01T14:00:07.529Z,2.85
2019-06-01T14:02:35.435Z,2.45
2019-06-01T14:05:03.425Z,2.00
2019-06-01T14:07:31.518Z,2.42
2019-06-01T14:09:59.482Z,2.37
2019-06-01T14:12:27.488Z,3.00
2019-06-01T14:14:55.668Z,2.70
2019-06-01T14:17:23.756Z,2.67
2019-06-01T14:19:51.747Z,1.80
2019-06-01T14:22:22.131Z,5.70
2019-06-01T14:24:59.872Z,1.80
2019-06-01T14:27:19.853Z,2.00
2019-06-01T14:29:52.271Z,2.62
2019-06-01T14:32:20.438Z,1.87
2019-06-01T14:34:48.581Z,1.70
2019-06-01T14:37:17.717Z,1.62
2019-06-01T14:39:46.756Z,2.00
2019-06-01T14:42:14.919Z,2.75
2019-06-01T14:44:44.703Z,1.67
2019-06-01T14:47:12.574Z,2.00
2019-06-01T14:49:40.552Z,2.40
2019-06-01T14:52:08.505Z,2.60
2019-06-01T14:54:36.483Z,2.83
2019-06-01T14:57:04.463Z,3.05
2019-06-01T14:59:32.632Z,3.00
2019-06-01T15:02:00.540Z,4.03
2019-06-01T15:04:28.592Z,2.37
2019-06-01T15:06:56.605Z,1.60
2019-06-01T15:09:24.596Z,1.98
2019-06-01T15:11:52.515Z,1.90
2019-06-01T15:14:20.796Z,2.17
2019-06-01T15:16:49.569Z,3.35
2019-06-01T15:19:17.797Z,1.95
2019-06-01T15:21:45.799Z,1.80
2019-06-01T15:24:13.835Z,4.17
2019-06-01T15:26:44.839Z,5.87
2019-06-01T15:29:12.851Z,8.65
2019-06-01T15:31:40.857Z,6.40
2019-06-01T15:34:08.947Z,3.87
2019-06-01T15:36:37.039Z,4.05
2019-06-01T15:39:05.380Z,3.60
2019-06-01T15:41:33.364Z,2.62
2019-06-01T15:44:01.403Z,2.10
2019-06-01T15:46:29.389Z,2.95
2019-06-01T15:48:57.749Z,3.90
2019-06-01T15:51:25.921Z,2.25
2019-06-01T15:53:54.841Z,2.10
2019-06-01T15:56:25.495Z,2.60
2019-06-01T15:58:55.393Z,1.75
2019-06-01T16:01:23.097Z,2.58
2019-06-01T16:03:51.136Z,4.53
2019-06-01T16:06:19.132Z,8.28
2019-06-01T16:08:49.234Z,8.50
2019-06-01T16:11:17.322Z,3.42
2019-06-01T16:13:45.434Z,1.95
2019-06-01T16:16:13.423Z,2.02
2019-06-01T16:18:41.373Z,4.72
2019-06-01T16:21:11.158Z,2.00
2019-06-01T16:23:49.259Z,2.20
2019-06-01T16:26:15.635Z,1.85
2019-06-01T16:28:38.765Z,3.60
2019-06-01T16:31:06.845Z,1.57
2019-06-01T16:33:34.993Z,1.98
2019-06-01T16:36:03.723Z,3.25
2019-06-01T16:38:32.393Z,2.62
2019-06-01T16:41:03.336Z,1.80
2019-06-01T16:43:31.378Z,1.70
2019-06-01T16:45:59.708Z,4.00
2019-06-01T16:48:27.753Z,2.50
2019-06-01T16:50:55.714Z,2.33
2019-06-01T16:53:23.695Z,2.62
2019-06-01T16:55:51.768Z,2.35
2019-06-01T16:58:19.803Z,2.05
2019-06-01T17:00:50.312Z,2.27
2019-06-01T17:03:18.424Z,2.15
2019-06-01T17:05:46.486Z,2.08
2019-06-01T17:08:14.520Z,2.00
2019-06-01T17:10:42.547Z,3.17
2019-06-01T17:13:12.857Z,4.90
2019-06-01T17:15:40.821Z,2.77
2019-06-01T17:18:10.525Z,1.98
2019-06-01T17:20:38.410Z,3.35
2019-06-01T17:23:24.238Z,2.60
2019-06-01T17:25:35.961Z,2.75
2019-06-01T17:28:05.069Z,3.15
2019-06-01T17:30:33.322Z,3.70
2019-06-01T17:33:02.338Z,2.80
2019-06-01T17:35:30.566Z,3.52
2019-06-01T17:37:58.745Z,2.33
2019-06-01T17:40:36.739Z,1.60
2019-06-01T17:43:15.608Z,3.00
2019-06-01T17:45:43.698Z,2.60
2019-06-01T17:48:25.137Z,1.92
2019-06-01T17:50:41.319Z,2.95
2019-06-01T17:53:09.366Z,2.90
2019-06-01T17:55:37.246Z,2.08
2019-06-01T17:58:05.616Z,4.45
2019-06-01T18:00:33.979Z,2.35
2019-06-01T18:03:02.051Z,4.12
2019-06-01T18:05:30.063Z,2.52
2019-06-01T18:07:57.972Z,3.27
2019-06-01T18:10:25.904Z,6.12
2019-06-01T18:12:53.782Z,3.37
2019-06-01T18:15:21.662Z,3.65
2019-06-01T18:17:51.298Z,4.12
2019-06-01T18:20:19.369Z,3.27
2019-06-01T18:22:47.319Z,2.85
2019-06-01T18:25:15.287Z,2.80
2019-06-01T18:27:43.271Z,2.22
2019-06-01T18:30:11.219Z,3.55
2019-06-01T18:32:39.316Z,3.80
2019-06-01T18:35:07.281Z,3.60
2019-06-01T18:37:35.375Z,3.85
2019-06-01T18:40:03.903Z,5.25
2019-06-01T18:42:32.023Z,3.45
2019-06-01T18:45:00.025Z,1.95
2019-06-01T18:47:32.525Z,2.25
2019-06-01T18:49:59.258Z,2.98
2019-06-01T18:52:27.372Z,6.15
2019-06-01T18:54:55.328Z,3.45
2019-06-01T18:57:23.229Z,2.80
2019-06-01T18:59:51.217Z,3.80
2019-06-01T19:02:19.204Z,3.35
2019-06-01T19:04:47.213Z,3.40
2019-06-01T19:07:15.492Z,3.30
2019-06-01T19:09:43.500Z,2.75
2019-06-01T19:12:11.521Z,2.33
2019-06-01T19:14:39.540Z,2.72
2019-06-01T19:17:08.269Z,3.25
2019-06-01T19:19:36.480Z,3.17
2019-06-01T19:22:04.435Z,5.10
2019-06-01T19:24:32.582Z,7.92
2019-06-01T19:27:03.618Z,4.75
2019-06-01T19:29:31.612Z,2.47
2019-06-01T19:31:59.717Z,3.12
2019-06-01T19:34:27.887Z,4.17
2019-06-01T19:36:55.887Z,3.10
2019-06-01T19:39:23.920Z,4.70
2019-06-01T19:41:53.817Z,6.80
2019-06-01T19:44:21.856Z,3.75
2019-06-01T19:46:49.881Z,5.67
2019-06-01T19:49:19.033Z,5.03
2019-06-01T19:51:47.125Z,3.25
2019-06-01T19:54:15.117Z,2.90
2019-06-01T19:56:44.380Z,5.37
2019-06-01T19:59:12.447Z,4.65
2019-06-01T20:01:40.331Z,4.95
2019-06-01T20:04:08.357Z,6.67
2019-06-01T20:06:36.439Z,3.75
2019-06-01T20:09:05.270Z,5.00
2019-06-01T20:11:33.347Z,6.75
2019-06-01T20:14:01.420Z,4.90
2019-06-01T20:16:29.490Z,4.60
2019-06-01T20:18:59.785Z,6.33
2019-06-01T20:21:27.813Z,5.33
2019-06-01T20:23:55.963Z,7.20
2019-06-01T20:26:39.338Z,7.10
2019-06-01T20:28:54.481Z,7.22
2019-06-01T20:31:24.592Z,7.12
2019-06-01T20:33:56.111Z,8.25
2019-06-01T20:36:22.320Z,6.08
2019-06-01T20:38:50.353Z,5.92
2019-06-01T20:41:18.829Z,4.75
2019-06-01T20:43:47.178Z,4.70
2019-06-01T20:46:18.846Z,4.40
2019-06-01T20:48:48.146Z,12.50
2019-06-01T20:51:16.813Z,8.55
2019-06-01T20:53:45.050Z,5.17
2019-06-01T20:56:13.397Z,7.08
2019-06-01T20:58:43.963Z,6.12
2019-06-01T21:01:11.941Z,3.00
2019-06-01T21:03:39.933Z,4.17
2019-06-01T21:06:07.959Z,4.37
2019-06-01T21:08:35.969Z,4.40
2019-06-01T21:11:04.029Z,5.42
2019-06-01T21:13:35.379Z,7.05
2019-06-01T21:16:03.373Z,7.70
2019-06-01T21:18:31.300Z,5.83
2019-06-01T21:21:00.402Z,6.47
2019-06-01T21:23:28.283Z,5.20
2019-06-01T21:25:56.278Z,6.60
2019-06-01T21:28:25.539Z,6.20
2019-06-01T21:30:53.831Z,7.40
2019-06-01T21:33:24.956Z,4.92
2019-06-01T21:35:51.294Z,4.10
2019-06-01T21:38:19.326Z,5.15
2019-06-01T21:40:47.402Z,4.62
2019-06-01T21:43:26.077Z,6.15
2019-06-01T21:45:46.638Z,5.10
2019-06-01T21:48:15.611Z,6.78
2019-06-01T21:50:43.575Z,5.42
2019-06-01T21:53:11.467Z,4.47
2019-06-01T21:55:39.346Z,4.12
2019-06-01T21:58:07.220Z,4.33
2019-06-01T22:00:38.521Z,4.97
2019-06-01T22:03:06.468Z,7.15
2019-06-01T22:05:34.364Z,5.95
2019-06-01T22:08:02.250Z,5.62
2019-06-01T22:10:30.140Z,6.00
2019-06-01T22:12:58.022Z,6.42
2019-06-01T22:15:25.985Z,6.87
2019-06-01T22:17:53.846Z,6.37
2019-06-01T22:20:21.937Z,4.10
2019-06-01T22:22:49.946Z,6.87
2019-06-01T22:25:18.251Z,5.90
2019-06-01T22:27:46.466Z,4.12
2019-06-01T22:30:14.548Z,5.45
2019-06-01T22:32:42.458Z,4.70
2019-06-01T22:35:10.331Z,4.78
2019-06-01T22:37:38.491Z,6.08
2019-06-01T22:40:06.437Z,6.35
2019-06-01T22:42:34.382Z,4.28
2019-06-01T22:45:02.299Z,4.12
2019-06-01T22:47:30.214Z,4.70
2019-06-01T22:49:58.089Z,4.67
2019-06-01T22:52:27.048Z,4.35
2019-06-01T22:54:55.138Z,5.80
2019-06-01T22:57:24.282Z,4.55
2019-06-01T22:59:52.154Z,4.60
2019-06-01T23:02:20.081Z,5.03
2019-06-01T23:04:48.092Z,6.25
2019-06-01T23:07:15.960Z,6.00
2019-06-01T23:09:43.814Z,6.47
2019-06-01T23:12:11.798Z,11.10
2019-06-01T23:14:39.634Z,6.95
2019-06-01T23:17:07.617Z,6.87
2019-06-01T23:19:35.504Z,6.30
2019-06-01T23:22:03.402Z,7.58
2019-06-01T23:24:32.269Z,6.28
2019-06-01T23:27:00.413Z,7.47
2019-06-01T23:29:28.266Z,6.35
2019-06-01T23:31:56.137Z,6.25
2019-06-01T23:34:24.938Z,4.30
2019-06-01T23:36:52.943Z,6.12
2019-06-01T23:39:20.819Z,4.45
2019-06-01T23:41:48.739Z,7.00
2019-06-01T23:44:16.609Z,5.42
2019-06-01T23:46:44.573Z,4.85
2019-06-01T23:49:12.450Z,5.75
2019-06-01T23:51:40.347Z,6.20
2019-06-01T23:54:08.276Z,6.05
2019-06-01T23:56:36.136Z,5.35
2019-06-01T23:59:03.985Z,6.83
